createdAt,value
2019-04-16T00:01:25.007Z,53.17
2019-04-16T00:03:59.612Z,50.78
2019-04-16T00:06:40.471Z,53.13
2019-04-16T00:09:15.019Z,50.98
2019-04-16T00:11:52.705Z,50.90
2019-04-16T00:14:30.141Z,48.45
2019-04-16T00:17:00.010Z,49.88
2019-04-16T00:19:29.784Z,51.42
2019-04-16T00:22:12.328Z,49.67
2019-04-16T00:24:44.268Z,51.73
2019-04-16T00:27:14.051Z,50.05
2019-04-16T00:29:43.878Z,48.58
2019-04-16T00:32:15.309Z,47.53
2019-04-16T00:34:45.455Z,50.33
2019-04-16T00:37:20.525Z,49.73
2019-04-16T00:39:47.795Z,50.15
2019-04-16T00:42:17.581Z,50.58
2019-04-16T00:44:47.394Z,48.80
2019-04-16T00:47:17.739Z,49.38
2019-04-16T00:49:47.607Z,47.98
2019-04-16T00:52:17.511Z,49.08
2019-04-16T00:54:47.294Z,51.02
2019-04-16T00:57:18.006Z,48.35
2019-04-16T00:59:48.403Z,49.13
2019-04-16T01:02:18.186Z,48.13
2019-04-16T01:04:48.406Z,49.93
2019-04-16T01:07:19.231Z,49.45
2019-04-16T01:09:49.012Z,50.40
2019-04-16T01:12:18.803Z,50.45
2019-04-16T01:14:48.623Z,47.85
2019-04-16T01:17:18.417Z,48.83
2019-04-16T01:19:48.638Z,47.38
2019-04-16T01:22:18.653Z,48.40
2019-04-16T01:24:51.597Z,49.48
2019-04-16T01:27:21.912Z,49.27
2019-04-16T01:29:52.451Z,49.05
2019-04-16T01:32:24.072Z,45.83
2019-04-16T01:35:02.208Z,46.45
2019-04-16T01:37:33.678Z,46.18
2019-04-16T01:40:05.899Z,46.63
2019-04-16T01:42:35.715Z,46.48
2019-04-16T01:45:07.527Z,47.33
2019-04-16T01:47:37.614Z,47.40
2019-04-16T01:50:07.708Z,48.87
2019-04-16T01:52:37.726Z,50.70
2019-04-16T01:55:07.515Z,51.55
2019-04-16T01:57:37.329Z,51.63
2019-04-16T02:00:08.802Z,52.23
2019-04-16T02:02:38.902Z,52.67
2019-04-16T02:05:08.823Z,53.52
2019-04-16T02:07:38.607Z,54.42
2019-04-16T02:10:08.842Z,53.25
2019-04-16T02:12:43.425Z,51.63
2019-04-16T02:15:13.129Z,51.75
2019-04-16T02:17:42.904Z,52.73
2019-04-16T02:20:13.230Z,52.73
2019-04-16T02:22:45.134Z,51.85
2019-04-16T02:25:18.987Z,51.33
2019-04-16T02:27:46.663Z,52.25
2019-04-16T02:30:17.040Z,51.80
2019-04-16T02:32:46.864Z,51.15
2019-04-16T02:35:16.706Z,50.52
2019-04-16T02:37:47.142Z,50.08
2019-04-16T02:40:18.850Z,51.40
2019-04-16T02:42:48.900Z,53.08
2019-04-16T02:45:23.012Z,54.15
2019-04-16T02:47:50.127Z,53.40
2019-04-16T02:50:21.551Z,53.05
2019-04-16T02:52:58.852Z,54.58
2019-04-16T02:55:43.900Z,54.35
2019-04-16T02:58:12.514Z,56.23
2019-04-16T03:00:59.172Z,56.80
2019-04-16T03:03:33.655Z,57.65
2019-04-16T03:06:03.605Z,57.73
2019-04-16T03:08:36.219Z,57.25
2019-04-16T03:11:05.977Z,54.58
2019-04-16T03:13:35.821Z,57.00
2019-04-16T03:16:15.108Z,55.85
2019-04-16T03:18:47.502Z,55.63
2019-04-16T03:21:17.939Z,55.92
2019-04-16T03:23:47.755Z,56.53
2019-04-16T03:26:18.163Z,55.25
2019-04-16T03:28:48.324Z,53.83
2019-04-16T03:31:22.912Z,56.83
2019-04-16T03:33:51.204Z,53.45
2019-04-16T03:36:21.281Z,55.55
2019-04-16T03:38:51.102Z,54.10
2019-04-16T03:41:21.470Z,57.20
2019-04-16T03:43:51.259Z,57.03
2019-04-16T03:46:21.662Z,57.17
2019-04-16T03:48:52.611Z,54.40
2019-04-16T03:51:22.854Z,55.03
2019-04-16T03:53:52.674Z,55.75
2019-04-16T03:56:23.076Z,54.75
2019-04-16T03:58:52.867Z,56.90
2019-04-16T04:01:22.990Z,56.23
2019-04-16T04:03:54.447Z,56.53
2019-04-16T04:06:24.193Z,58.38
2019-04-16T04:08:54.018Z,56.92
2019-04-16T04:11:23.803Z,56.65
2019-04-16T04:13:53.589Z,55.95
2019-04-16T04:16:23.420Z,58.20
2019-04-16T04:18:53.203Z,56.55
2019-04-16T04:21:22.986Z,58.20
2019-04-16T04:23:53.158Z,59.67
2019-04-16T04:26:23.438Z,55.50
2019-04-16T04:28:53.631Z,57.73
2019-04-16T04:31:24.126Z,57.00
2019-04-16T04:33:54.428Z,56.30
2019-04-16T04:36:26.963Z,54.75
2019-04-16T04:38:55.974Z,57.27
2019-04-16T04:41:25.758Z,55.25
2019-04-16T04:43:55.539Z,57.45
2019-04-16T04:46:25.766Z,57.55
2019-04-16T04:48:59.943Z,58.33
2019-04-16T04:51:27.459Z,57.13
2019-04-16T04:53:57.283Z,57.65
2019-04-16T04:56:27.973Z,57.73
2019-04-16T04:58:58.566Z,57.35
2019-04-16T05:01:28.450Z,57.93
2019-04-16T05:04:20.612Z,56.80
2019-04-16T05:06:51.047Z,55.40
2019-04-16T05:09:20.840Z,55.80
2019-04-16T05:11:50.628Z,52.95
2019-04-16T05:14:20.752Z,52.90
2019-04-16T05:16:50.644Z,55.35
2019-04-16T05:19:20.426Z,55.58
2019-04-16T05:21:50.878Z,56.13
2019-04-16T05:24:20.639Z,54.83
2019-04-16T05:26:50.423Z,55.23
2019-04-16T05:29:20.259Z,55.85
2019-04-16T05:31:51.259Z,54.30
2019-04-16T05:34:21.079Z,54.83
2019-04-16T05:36:51.174Z,55.40
2019-04-16T05:39:21.200Z,55.35
2019-04-16T05:41:52.992Z,56.15
2019-04-16T05:44:22.869Z,54.08
2019-04-16T05:46:52.651Z,55.05
2019-04-16T05:49:25.642Z,54.53
2019-04-16T05:51:53.883Z,50.67
2019-04-16T05:54:37.614Z,51.60
2019-04-16T05:57:12.435Z,51.73
2019-04-16T05:59:42.222Z,50.58
2019-04-16T06:02:15.004Z,50.52
2019-04-16T06:04:45.108Z,51.23
2019-04-16T06:07:14.893Z,52.35
2019-04-16T06:09:45.321Z,50.63
2019-04-16T06:12:15.523Z,50.95
2019-04-16T06:14:49.584Z,50.78
2019-04-16T06:17:20.520Z,49.03
2019-04-16T06:19:52.227Z,48.25
2019-04-16T06:22:28.340Z,50.00
2019-04-16T06:25:09.688Z,47.75
2019-04-16T06:27:50.563Z,48.78
2019-04-16T06:30:22.032Z,49.45
2019-04-16T06:32:58.838Z,47.90
2019-04-16T06:35:46.815Z,46.05
2019-04-16T06:38:18.246Z,46.28
2019-04-16T06:41:03.146Z,46.65
2019-04-16T06:43:47.485Z,45.55
2019-04-16T06:46:21.963Z,44.05
2019-04-16T06:48:59.285Z,43.63
2019-04-16T06:51:34.184Z,43.20
2019-04-16T06:54:18.068Z,42.62
2019-04-16T06:56:50.473Z,43.25
2019-04-16T06:59:38.271Z,41.90
2019-04-16T07:02:26.803Z,42.65
2019-04-16T07:05:01.970Z,42.85
2019-04-16T07:07:39.854Z,40.92
2019-04-16T07:10:09.431Z,41.48
2019-04-16T07:12:39.778Z,41.08
2019-04-16T07:15:10.458Z,40.95
2019-04-16T07:17:40.682Z,38.40
2019-04-16T07:20:13.469Z,41.53
2019-04-16T07:22:42.079Z,40.45
2019-04-16T07:25:12.566Z,40.28
2019-04-16T07:27:44.019Z,36.90
2019-04-16T07:30:20.848Z,37.53
2019-04-16T07:32:50.903Z,35.98
2019-04-16T07:35:34.340Z,36.25
2019-04-16T07:38:24.452Z,34.43
2019-04-16T07:41:12.839Z,32.42
2019-04-16T07:44:08.111Z,33.58
2019-04-16T07:46:35.599Z,33.18
2019-04-16T07:49:07.387Z,32.95
2019-04-16T07:51:55.414Z,33.13
2019-04-16T07:54:32.937Z,30.02
2019-04-16T07:57:02.763Z,30.68
2019-04-16T07:59:33.006Z,30.82
2019-04-16T08:02:02.866Z,32.67
2019-04-16T08:04:35.641Z,31.70
2019-04-16T08:07:04.103Z,30.92
2019-04-16T08:09:33.891Z,31.70
2019-04-16T08:12:03.720Z,30.43
2019-04-16T08:14:33.508Z,31.93
2019-04-16T08:17:03.365Z,33.85
2019-04-16T08:19:37.241Z,32.15
2019-04-16T08:22:05.049Z,31.90
2019-04-16T08:24:45.719Z,31.60
2019-04-16T08:27:19.222Z,32.58
2019-04-16T08:29:48.094Z,31.23
2019-04-16T08:32:17.919Z,33.40
2019-04-16T08:34:47.708Z,32.63
2019-04-16T08:37:17.502Z,31.90
2019-04-16T08:39:47.588Z,31.05
2019-04-16T08:42:17.742Z,31.57
2019-04-16T08:44:49.227Z,32.90
2019-04-16T08:47:19.047Z,32.78
2019-04-16T08:49:53.618Z,32.28
2019-04-16T08:52:20.606Z,32.25
2019-04-16T08:54:54.540Z,32.48
2019-04-16T08:57:21.832Z,31.85
2019-04-16T08:59:51.632Z,31.05
2019-04-16T09:02:23.625Z,31.75
2019-04-16T09:04:54.125Z,31.75
2019-04-16T09:07:39.274Z,32.48
2019-04-16T09:10:18.864Z,31.80
2019-04-16T09:12:50.711Z,32.63
2019-04-16T09:15:18.982Z,34.00
2019-04-16T09:17:50.361Z,32.35
2019-04-16T09:20:23.282Z,31.52
2019-04-16T09:22:54.674Z,31.73
2019-04-16T09:25:31.799Z,30.95
2019-04-16T09:28:24.436Z,31.87
2019-04-16T09:31:01.137Z,30.82
2019-04-16T09:33:41.731Z,32.08
2019-04-16T09:36:13.159Z,33.25
2019-04-16T09:38:53.638Z,32.30
2019-04-16T09:41:29.022Z,31.75
2019-04-16T09:44:00.330Z,30.92
2019-04-16T09:46:50.425Z,32.13
2019-04-16T09:49:04.761Z,33.73
2019-04-16T09:51:33.516Z,35.15
2019-04-16T09:54:03.370Z,32.67
2019-04-16T09:56:33.174Z,33.45
2019-04-16T09:59:10.992Z,33.55
2019-04-16T10:01:44.815Z,32.53
2019-04-16T10:04:19.807Z,33.75
2019-04-16T10:06:49.552Z,32.88
2019-04-16T10:09:21.967Z,34.95
2019-04-16T10:11:50.968Z,33.88
2019-04-16T10:14:20.748Z,33.13
2019-04-16T10:16:50.540Z,33.33
2019-04-16T10:19:21.917Z,33.75
2019-04-16T10:21:54.484Z,33.78
2019-04-16T10:24:41.721Z,34.03
2019-04-16T10:27:13.122Z,33.25
2019-04-16T10:29:42.930Z,32.38
2019-04-16T10:32:12.878Z,32.05
2019-04-16T10:34:42.690Z,33.05
2019-04-16T10:37:13.779Z,33.05
2019-04-16T10:39:48.273Z,30.88
2019-04-16T10:42:28.524Z,29.52
2019-04-16T10:44:59.990Z,30.30
2019-04-16T10:47:35.838Z,29.12
2019-04-16T10:50:07.817Z,29.67
2019-04-16T10:52:55.797Z,28.73
2019-04-16T10:55:27.286Z,27.98
2019-04-16T10:58:15.190Z,28.07
2019-04-16T11:00:46.637Z,29.37
2019-04-16T11:03:20.871Z,30.57
2019-04-16T11:05:57.075Z,29.20
2019-04-16T11:08:26.508Z,29.70
2019-04-16T11:10:56.299Z,29.70
2019-04-16T11:13:31.461Z,30.55
2019-04-16T11:16:02.943Z,31.20
2019-04-16T11:18:32.714Z,29.63
2019-04-16T11:21:03.831Z,29.70
2019-04-16T11:23:33.687Z,29.20
2019-04-16T11:26:03.479Z,28.70
2019-04-16T11:28:33.482Z,27.93
2019-04-16T11:31:07.927Z,27.95
2019-04-16T11:33:37.803Z,29.23
2019-04-16T11:36:18.585Z,29.12
2019-04-16T11:38:41.843Z,28.55
2019-04-16T11:41:11.656Z,28.77
2019-04-16T11:43:42.349Z,29.48
2019-04-16T11:46:12.304Z,29.23
2019-04-16T11:48:42.190Z,29.10
2019-04-16T11:51:12.152Z,29.42
2019-04-16T11:53:41.932Z,27.07
2019-04-16T11:56:12.062Z,28.77
2019-04-16T11:58:47.525Z,29.15
2019-04-16T12:01:28.408Z,28.70
2019-04-16T12:03:59.846Z,28.57
2019-04-16T12:06:46.255Z,27.48
2019-04-16T12:09:34.025Z,27.37
2019-04-16T12:12:05.795Z,28.27
2019-04-16T12:14:42.061Z,27.80
2019-04-16T12:17:16.636Z,26.85
2019-04-16T12:19:56.956Z,28.17
2019-04-16T12:22:28.929Z,26.70
2019-04-16T12:25:18.118Z,27.65
2019-04-16T12:27:49.583Z,27.20
2019-04-16T12:30:26.894Z,26.60
2019-04-16T12:32:58.341Z,27.20
2019-04-16T12:35:34.825Z,26.12
2019-04-16T12:38:19.219Z,26.68
2019-04-16T12:41:08.964Z,25.82
2019-04-16T12:46:35.158Z,26.37
2019-04-16T12:49:06.742Z,26.52
2019-04-16T12:51:40.813Z,26.57
2019-04-16T12:54:27.679Z,26.80
2019-04-16T12:57:04.916Z,25.62
2019-04-16T12:59:39.746Z,24.65
2019-04-16T13:02:26.111Z,24.00
2019-04-16T13:05:03.862Z,24.00
2019-04-16T13:07:39.132Z,25.08
2019-04-16T13:10:11.012Z,23.98
2019-04-16T13:12:58.984Z,23.38
2019-04-16T13:15:49.467Z,22.00
2019-04-16T13:18:26.678Z,22.70
2019-04-16T13:21:03.977Z,21.10
2019-04-16T13:23:36.706Z,22.45
2019-04-16T13:26:14.268Z,23.77
2019-04-16T13:28:44.059Z,23.73
2019-04-16T13:31:14.412Z,22.82
2019-04-16T13:33:46.208Z,22.62
2019-04-16T13:36:15.817Z,23.45
2019-04-16T13:38:53.206Z,22.40
2019-04-16T13:41:26.346Z,22.73
2019-04-16T13:44:17.108Z,23.65
2019-04-16T13:46:46.207Z,22.93
2019-04-16T13:49:24.161Z,22.77
2019-04-16T13:51:52.042Z,23.05
2019-04-16T13:54:35.765Z,21.48
2019-04-16T13:57:10.208Z,22.90
2019-04-16T14:00:03.025Z,21.85
2019-04-16T14:02:50.786Z,21.77
2019-04-16T14:05:19.181Z,22.27
2019-04-16T14:07:49.040Z,23.35
2019-04-16T14:10:18.965Z,23.25
2019-04-16T14:12:49.497Z,22.50
2019-04-16T14:15:31.671Z,22.77
2019-04-16T14:17:53.401Z,23.18
2019-04-16T14:20:23.379Z,22.60
2019-04-16T14:22:53.540Z,22.67
2019-04-16T14:25:24.259Z,22.73
2019-04-16T14:27:55.527Z,23.65
2019-04-16T14:30:27.132Z,23.77
2019-04-16T14:32:56.914Z,22.98
2019-04-16T14:35:33.553Z,22.87
2019-04-16T14:38:00.383Z,23.32
2019-04-16T14:40:30.169Z,24.37
2019-04-16T14:43:00.225Z,24.37
2019-04-16T14:45:56.774Z,23.85
2019-04-16T14:48:11.902Z,22.95
2019-04-16T14:50:41.947Z,23.52
2019-04-16T14:53:13.590Z,24.77
2019-04-16T14:56:00.053Z,24.27
2019-04-16T14:58:37.778Z,23.25
2019-04-16T15:01:09.343Z,23.87
2019-04-16T15:03:50.071Z,24.05
2019-04-16T15:06:36.290Z,22.40
2019-04-16T15:09:18.399Z,23.47
2019-04-16T15:12:08.149Z,23.07
2019-04-16T15:14:38.878Z,22.80
2019-04-16T15:17:12.743Z,22.00
2019-04-16T15:19:43.401Z,23.42
2019-04-16T15:22:26.963Z,22.93
2019-04-16T15:25:13.816Z,23.15
2019-04-16T15:27:57.246Z,22.67
2019-04-16T15:30:31.467Z,23.22
2019-04-16T15:33:07.260Z,22.05
2019-04-16T15:35:38.796Z,22.58
2019-04-16T15:38:10.227Z,22.62
2019-04-16T15:40:42.802Z,22.87
2019-04-16T15:43:32.342Z,22.80
2019-04-16T15:46:07.964Z,23.07
2019-04-16T15:48:50.710Z,23.35
2019-04-16T15:51:37.671Z,22.42
2019-04-16T15:57:14.717Z,22.37
2019-04-16T15:59:46.143Z,21.00
2019-04-16T16:02:23.532Z,21.55
2019-04-16T16:05:11.197Z,20.97
2019-04-16T16:07:42.927Z,21.45
2019-04-16T16:10:20.579Z,22.77
2019-04-16T16:12:53.635Z,21.37
2019-04-16T16:15:22.488Z,21.30
2019-04-16T16:17:52.279Z,21.27
2019-04-16T16:20:22.662Z,19.82
2019-04-16T16:22:54.565Z,21.12
2019-04-16T16:25:23.870Z,21.33
2019-04-16T16:27:54.190Z,20.72
2019-04-16T16:30:24.187Z,19.85
2019-04-16T16:32:54.723Z,21.27
2019-04-16T16:35:24.539Z,21.33
2019-04-16T16:37:54.333Z,20.65
2019-04-16T16:40:24.115Z,21.25
2019-04-16T16:42:54.410Z,20.50
2019-04-16T16:45:25.880Z,20.92
2019-04-16T16:47:56.523Z,20.55
2019-04-16T16:50:26.587Z,21.05
2019-04-16T16:53:04.116Z,20.95
2019-04-16T16:55:36.755Z,20.30
2019-04-16T16:58:10.946Z,21.40
2019-04-16T17:00:56.362Z,20.25
2019-04-16T17:03:44.275Z,21.27
2019-04-16T17:06:15.738Z,19.87
2019-04-16T17:08:45.813Z,20.20
2019-04-16T17:11:17.097Z,21.95
2019-04-16T17:13:46.983Z,23.35
2019-04-16T17:16:16.771Z,21.65
2019-04-16T17:18:47.421Z,20.25
2019-04-16T17:21:17.457Z,21.50
2019-04-16T17:23:47.688Z,20.57
2019-04-16T17:26:18.075Z,19.65
2019-04-16T17:28:48.651Z,20.15
2019-04-16T17:31:18.898Z,20.37
2019-04-16T17:33:48.830Z,21.27
2019-04-16T17:36:19.203Z,21.80
2019-04-16T17:38:49.466Z,21.10
2019-04-16T17:41:24.084Z,20.08
2019-04-16T17:44:01.892Z,20.50
2019-04-16T17:46:31.295Z,21.75
2019-04-16T17:49:08.712Z,20.23
2019-04-16T17:51:48.998Z,22.02
2019-04-16T17:54:37.075Z,20.20
2019-04-16T17:57:28.973Z,21.70
2019-04-16T18:00:15.204Z,21.10
2019-04-16T18:02:55.787Z,20.35
2019-04-16T18:05:27.256Z,19.48
2019-04-16T18:08:02.439Z,19.85
2019-04-16T18:10:50.135Z,19.50
2019-04-16T18:13:31.837Z,18.87
2019-04-16T18:16:19.768Z,18.20
2019-04-16T18:19:06.618Z,19.17
2019-04-16T18:21:50.415Z,19.42
2019-04-16T18:24:24.899Z,19.25
2019-04-16T18:26:56.371Z,17.85
2019-04-16T18:29:33.513Z,18.10
2019-04-16T18:32:21.382Z,18.85
2019-04-16T18:34:56.415Z,19.48
2019-04-16T18:37:48.708Z,18.10
2019-04-16T18:40:23.394Z,18.62
2019-04-16T18:42:54.865Z,19.67
2019-04-16T18:45:42.463Z,19.65
2019-04-16T18:48:20.214Z,18.10
2019-04-16T18:50:50.056Z,19.50
2019-04-16T18:53:19.915Z,17.80
2019-04-16T18:55:49.735Z,18.75
2019-04-16T18:58:19.527Z,18.60
2019-04-16T19:00:51.116Z,18.77
2019-04-16T19:03:20.930Z,18.87
2019-04-16T19:05:50.733Z,19.48
2019-04-16T19:08:20.525Z,19.55
2019-04-16T19:10:50.811Z,18.42
2019-04-16T19:13:21.180Z,17.40
2019-04-16T19:15:51.427Z,17.20
2019-04-16T19:18:22.091Z,18.48
2019-04-16T19:20:52.678Z,17.23
2019-04-16T19:23:22.511Z,17.82
2019-04-16T19:25:55.281Z,19.35
2019-04-16T19:28:25.011Z,18.35
2019-04-16T19:30:54.807Z,18.92
2019-04-16T19:33:24.614Z,17.90
2019-04-16T19:35:54.407Z,17.98
2019-04-16T19:38:25.835Z,17.92
2019-04-16T19:40:56.347Z,17.50
2019-04-16T19:43:28.269Z,17.10
2019-04-16T19:45:57.708Z,18.65
2019-04-16T19:48:35.230Z,17.30
2019-04-16T19:50:59.883Z,17.25
2019-04-16T19:53:29.695Z,16.97
2019-04-16T19:55:59.898Z,18.23
2019-04-16T19:58:30.466Z,17.23
2019-04-16T20:01:00.265Z,17.00
2019-04-16T20:03:31.148Z,16.35
2019-04-16T20:06:02.135Z,16.90
2019-04-16T20:08:35.421Z,16.10
2019-04-16T20:11:03.969Z,16.15
2019-04-16T20:13:33.957Z,16.87
2019-04-16T20:16:03.736Z,18.05
2019-04-16T20:18:33.553Z,16.93
2019-04-16T20:21:05.538Z,16.82
2019-04-16T20:23:35.419Z,15.85
2019-04-16T20:26:05.504Z,16.55
2019-04-16T20:28:35.331Z,16.70
2019-04-16T20:31:05.123Z,17.05
2019-04-16T20:33:35.156Z,17.40
2019-04-16T20:36:05.421Z,17.70
2019-04-16T20:38:35.803Z,18.92
2019-04-16T20:41:06.087Z,18.40
2019-04-16T20:43:36.382Z,18.20
2019-04-16T20:46:09.275Z,17.95
2019-04-16T20:48:41.827Z,18.00
2019-04-16T20:51:11.263Z,17.65
2019-04-16T20:53:41.385Z,17.52
2019-04-16T20:56:11.272Z,16.50
2019-04-16T20:58:41.064Z,16.42
2019-04-16T21:01:10.920Z,16.93
2019-04-16T21:03:41.882Z,17.02
2019-04-16T21:06:11.654Z,17.17
2019-04-16T21:08:41.743Z,16.35
2019-04-16T21:11:11.953Z,15.40
2019-04-16T21:13:41.836Z,16.23
2019-04-16T21:16:11.615Z,17.25
2019-04-16T21:18:41.898Z,15.85
2019-04-16T21:21:11.686Z,16.65
2019-04-16T21:23:41.467Z,17.80
2019-04-16T21:26:11.291Z,16.77
2019-04-16T21:28:42.951Z,16.02
2019-04-16T21:31:14.373Z,17.42
2019-04-16T21:33:55.083Z,16.52
2019-04-16T21:36:38.410Z,16.73
2019-04-16T21:39:19.302Z,16.55
2019-04-16T21:41:49.082Z,16.60
2019-04-16T21:44:18.859Z,18.25
2019-04-16T21:46:58.532Z,17.65
2019-04-16T21:49:38.356Z,17.77
2019-04-16T21:52:08.573Z,18.50
2019-04-16T21:54:40.033Z,18.45
2019-04-16T21:57:13.299Z,18.42
2019-04-16T21:59:41.672Z,18.37
2019-04-16T22:02:13.891Z,17.87
2019-04-16T22:04:45.472Z,19.02
2019-04-16T22:07:15.578Z,21.37
2019-04-16T22:09:45.355Z,22.70
2019-04-16T22:12:16.316Z,21.33
2019-04-16T22:14:46.792Z,22.60
2019-04-16T22:17:16.899Z,25.20
2019-04-16T22:19:54.382Z,25.15
2019-04-16T22:22:19.493Z,24.23
2019-04-16T22:24:51.737Z,25.50
2019-04-16T22:27:20.672Z,25.57
2019-04-16T22:29:50.559Z,24.15
2019-04-16T22:32:21.460Z,24.32
2019-04-16T22:34:51.242Z,26.33
2019-04-16T22:37:21.994Z,25.88
2019-04-16T22:40:09.695Z,23.92
2019-04-16T22:42:41.888Z,22.93
2019-04-16T22:45:25.374Z,23.67
2019-04-16T22:47:56.338Z,23.70
2019-04-16T22:50:26.555Z,24.82
2019-04-16T22:52:56.337Z,24.32
2019-04-16T22:55:26.628Z,23.98
2019-04-16T22:57:59.851Z,24.67
2019-04-16T23:00:33.929Z,25.15
2019-04-16T23:03:03.719Z,23.83
2019-04-16T23:05:33.494Z,23.18
2019-04-16T23:08:03.309Z,23.35
2019-04-16T23:10:33.090Z,23.55
2019-04-16T23:13:03.555Z,22.87
2019-04-16T23:15:34.242Z,24.02
2019-04-16T23:18:04.113Z,25.50
2019-04-16T23:20:36.944Z,25.10
2019-04-16T23:23:05.331Z,23.65
2019-04-16T23:25:35.114Z,24.57
2019-04-16T23:28:09.449Z,24.63
2019-04-16T23:30:36.334Z,24.37
2019-04-16T23:33:06.118Z,25.43
2019-04-16T23:35:35.899Z,24.40
2019-04-16T23:38:06.094Z,24.32
2019-04-16T23:40:36.321Z,26.15
2019-04-16T23:43:23.904Z,25.62
2019-04-16T23:46:11.780Z,24.57
2019-04-16T23:49:11.636Z,26.25
2019-04-16T23:51:58.612Z,25.10
2019-04-16T23:54:32.243Z,24.57
2019-04-16T23:57:06.758Z,28.55
2019-04-16T23:59:56.557Z,26.10
